Hovedside
METAR-TAF:

METAR-TAF

Lufthavner :

Vasa lufthavn

Vasa, Finland

breddegrad: 63-03N, lengdegrad: 021-46E, høyde over havet: 4 m

Gjeldene værobservasjon

Denne rapporten ble laget for 16 minutter siden, klokken 17:20 UTC
Vind 6 kt fra Nord-nordøst
Temperatur 18°C
Luftfuktighet 19%
Trykk 1027 hPa
Sikt 10 km eller mer
ingen skyer under 1500 m og ingen bygeskyer

METAR: EFVA 261720Z AUTO 03006KT CAVOK 18/M06 Q1027

Tid: 20:36 (17:36 UTC)

Varsel

Denne rapporten ble laget for 3 timer og 14 minutter siden, klokken 14:22 UTC
Varsel gyldig fra 26. klokken 15 UTC til 27. klokken 15 UTC
Vind 7 kt fra Nord-nordøst
Sikt 10 km eller mer
ingen skyer under 1500 m og ingen bygeskyer

TAF: EFVA 261422Z 2615/2715 02007KT CAVOK

Værobservasjoner og værvarsel for over 4000 flyplasser (METAR- og TAF-rapporter).

Tilgjengelige stasjoner er representert av de røde og gule prikkene på kartet.

Hold musepekeren over prikken for å se navnet på stasjonen.

Klikk så for å se værobservasjoner og -varsler.

For å forandre kartet kan du klikke på den grønne knappen med svart kryss for å zoome inn, på den grønne knappen med strek for å zoome ut, eller på de grønne pilene for å se tilstøtende kart.


METAR-TAF: